createdAt,value
2018-07-06T00:02:42.578Z,7.03
2018-07-06T00:05:28.747Z,6.23
2018-07-06T00:08:14.896Z,9.53
2018-07-06T00:11:01.062Z,8.10
2018-07-06T00:13:47.112Z,5.33
2018-07-06T00:16:33.309Z,23.87
2018-07-06T00:19:19.588Z,8.93
2018-07-06T00:22:05.784Z,7.93
2018-07-06T00:24:46.108Z,5.20
2018-07-06T00:27:32.251Z,10.97
2018-07-06T00:30:18.465Z,14.63
2018-07-06T00:33:04.656Z,7.40
2018-07-06T00:35:51.820Z,4.30
2018-07-06T00:38:37.952Z,10.60
2018-07-06T00:41:24.048Z,11.20
2018-07-06T00:44:10.126Z,4.30
2018-07-06T00:46:56.472Z,7.03
2018-07-06T00:49:43.649Z,9.20
2018-07-06T00:52:29.959Z,8.77
2018-07-06T00:55:16.227Z,12.23
2018-07-06T00:58:02.374Z,10.63
2018-07-06T01:00:48.560Z,15.13
2018-07-06T01:03:34.664Z,13.20
2018-07-06T01:06:21.019Z,8.60
2018-07-06T01:09:07.333Z,9.93
2018-07-06T01:11:53.461Z,12.40
2018-07-06T01:14:39.665Z,7.80
2018-07-06T01:17:25.848Z,5.07
2018-07-06T01:20:11.993Z,14.70
2018-07-06T01:22:58.652Z,12.60
2018-07-06T01:25:44.672Z,10.67
2018-07-06T01:28:30.863Z,7.67
2018-07-06T01:31:17.125Z,8.47
2018-07-06T01:33:57.393Z,8.37
2018-07-06T01:36:43.696Z,9.83
2018-07-06T01:39:30.980Z,9.70
2018-07-06T01:42:17.305Z,9.00
2018-07-06T01:44:57.678Z,10.70
2018-07-06T01:47:37.958Z,13.90
2018-07-06T01:50:24.166Z,8.70
2018-07-06T01:53:10.391Z,6.70
2018-07-06T01:55:56.530Z,10.10
2018-07-06T01:58:42.831Z,12.50
2018-07-06T02:01:23.115Z,27.57
2018-07-06T02:04:09.890Z,9.83
2018-07-06T02:06:56.112Z,15.40
2018-07-06T02:09:42.366Z,14.33
2018-07-06T02:12:28.597Z,20.90
2018-07-06T02:15:08.925Z,13.33
2018-07-06T02:17:55.234Z,8.57
2018-07-06T02:20:41.373Z,12.53
2018-07-06T02:23:27.574Z,14.43
2018-07-06T02:26:13.910Z,8.37
2018-07-06T02:29:00.110Z,20.73
2018-07-06T02:31:46.309Z,13.23
2018-07-06T02:34:32.498Z,21.13
2018-07-06T02:37:18.671Z,17.37
2018-07-06T02:40:04.978Z,22.90
2018-07-06T02:42:51.343Z,18.43
2018-07-06T02:45:37.682Z,30.23
2018-07-06T02:48:23.939Z,14.63
2018-07-06T02:51:04.723Z,12.97
2018-07-06T02:53:50.837Z,12.33
2018-07-06T02:56:37.119Z,10.70
2018-07-06T02:59:23.370Z,11.70
2018-07-06T03:02:09.806Z,14.03
2018-07-06T03:04:56.374Z,7.57
2018-07-06T03:07:42.543Z,13.43
2018-07-06T03:10:28.808Z,16.13
2018-07-06T03:13:15.500Z,11.63
2018-07-06T03:16:01.684Z,12.77
2018-07-06T03:18:47.852Z,10.30
2018-07-06T03:21:34.034Z,12.17
2018-07-06T03:24:20.337Z,10.47
2018-07-06T03:27:06.476Z,8.87
2018-07-06T03:29:52.780Z,13.57
2018-07-06T03:32:33.111Z,10.97
2018-07-06T03:35:19.320Z,16.93
2018-07-06T03:38:05.570Z,10.77
2018-07-06T03:40:51.826Z,15.37
2018-07-06T03:43:38.428Z,12.37
2018-07-06T03:46:24.812Z,12.03
2018-07-06T03:49:10.992Z,11.10
2018-07-06T03:51:57.253Z,15.43
2018-07-06T03:54:43.547Z,15.77
2018-07-06T03:57:29.823Z,16.47
2018-07-06T04:00:15.930Z,18.03
2018-07-06T04:03:02.041Z,14.03
2018-07-06T04:05:48.119Z,10.10
2018-07-06T04:08:34.468Z,11.83
2018-07-06T04:11:14.699Z,19.87
2018-07-06T04:14:00.977Z,18.47
2018-07-06T04:16:47.213Z,13.53
2018-07-06T04:19:33.398Z,26.17
2018-07-06T04:22:19.725Z,20.23
2018-07-06T04:25:06.088Z,12.63
2018-07-06T04:27:52.309Z,9.53
2018-07-06T04:30:38.454Z,8.20
2018-07-06T04:33:24.567Z,10.40
2018-07-06T04:36:10.797Z,12.37
2018-07-06T04:38:56.861Z,13.63
2018-07-06T04:41:43.079Z,25.47
2018-07-06T04:44:29.412Z,9.47
2018-07-06T04:47:15.583Z,14.47
2018-07-06T04:50:01.775Z,11.80
2018-07-06T04:52:47.920Z,21.33
2018-07-06T04:55:34.199Z,19.10
2018-07-06T04:58:20.526Z,11.70
2018-07-06T05:01:06.789Z,8.70
2018-07-06T05:03:53.152Z,13.43
2018-07-06T05:06:39.379Z,9.20
2018-07-06T05:09:25.473Z,18.80
2018-07-06T05:12:11.673Z,15.60
2018-07-06T05:14:57.854Z,13.80
2018-07-06T05:17:44.198Z,20.40
2018-07-06T05:20:24.398Z,11.90
2018-07-06T05:23:10.611Z,10.53
2018-07-06T05:25:56.882Z,11.03
2018-07-06T05:28:43.104Z,11.87
2018-07-06T05:31:29.306Z,15.77
2018-07-06T05:34:15.603Z,14.30
2018-07-06T05:37:01.945Z,21.33
2018-07-06T05:39:48.276Z,16.17
2018-07-06T05:42:34.558Z,13.97
2018-07-06T05:45:20.685Z,16.40
2018-07-06T05:48:06.796Z,12.17
2018-07-06T05:50:53.128Z,20.03
2018-07-06T05:53:39.486Z,14.70
2018-07-06T05:56:25.753Z,12.50
2018-07-06T05:59:06.017Z,12.77
2018-07-06T06:01:52.403Z,11.93
2018-07-06T06:04:38.663Z,11.83
2018-07-06T06:07:21.304Z,10.93
2018-07-06T06:09:50.761Z,13.90
2018-07-06T06:12:20.415Z,13.37
2018-07-06T06:14:50.576Z,12.50
2018-07-06T06:17:19.984Z,13.90
2018-07-06T06:19:49.404Z,13.53
2018-07-06T06:22:18.850Z,9.30
2018-07-06T06:24:48.364Z,14.13
2018-07-06T06:27:17.717Z,12.17
2018-07-06T06:29:47.232Z,25.27
2018-07-06T06:32:17.247Z,17.63
2018-07-06T06:34:46.820Z,7.97
2018-07-06T06:37:16.437Z,8.93
2018-07-06T06:39:45.942Z,9.97
2018-07-06T06:42:15.092Z,12.13
2018-07-06T06:44:44.577Z,9.40
2018-07-06T06:47:14.059Z,11.90
2018-07-06T06:49:43.675Z,11.20
2018-07-06T06:52:13.196Z,10.33
2018-07-06T06:54:42.747Z,14.00
2018-07-06T06:57:12.186Z,10.83
2018-07-06T06:59:41.774Z,13.40
2018-07-06T07:02:11.279Z,11.07
2018-07-06T07:04:40.933Z,17.53
2018-07-06T07:07:10.423Z,14.43
2018-07-06T07:09:39.621Z,14.70
2018-07-06T07:12:09.000Z,12.20
2018-07-06T07:14:38.514Z,11.47
2018-07-06T07:17:08.987Z,13.37
2018-07-06T07:19:38.532Z,11.83
2018-07-06T07:22:08.000Z,11.17
2018-07-06T07:24:38.142Z,13.57
2018-07-06T07:27:07.645Z,13.33
2018-07-06T07:29:37.120Z,16.00
2018-07-06T07:32:06.697Z,14.07
2018-07-06T07:34:36.214Z,15.77
2018-07-06T07:37:05.666Z,15.80
2018-07-06T07:39:35.168Z,15.97
2018-07-06T07:42:04.699Z,17.97
2018-07-06T07:44:34.398Z,16.23
2018-07-06T07:47:03.906Z,19.47
2018-07-06T07:49:33.458Z,22.13
2018-07-06T07:52:13.811Z,24.60
2018-07-06T07:54:49.025Z,19.07
2018-07-06T07:57:18.852Z,24.00
2018-07-06T07:59:48.647Z,21.70
2018-07-06T08:02:18.201Z,23.07
2018-07-06T08:04:48.284Z,24.57
2018-07-06T08:07:18.640Z,21.93
2018-07-06T08:09:48.402Z,23.00
2018-07-06T08:12:17.815Z,21.43
2018-07-06T08:14:47.295Z,26.53
2018-07-06T08:17:16.751Z,21.00
2018-07-06T08:19:46.211Z,21.03
2018-07-06T08:22:15.632Z,19.17
2018-07-06T08:24:45.110Z,22.13
2018-07-06T08:27:14.590Z,18.53
2018-07-06T08:29:44.045Z,20.20
2018-07-06T08:32:13.465Z,16.80
2018-07-06T08:34:59.517Z,19.07
2018-07-06T08:37:48.863Z,16.60
2018-07-06T08:40:18.570Z,19.83
2018-07-06T08:42:52.365Z,14.90
2018-07-06T08:45:21.821Z,15.67
2018-07-06T08:47:51.364Z,17.33
2018-07-06T08:50:20.776Z,19.50
2018-07-06T08:52:51.116Z,19.60
2018-07-06T08:55:20.976Z,20.10
2018-07-06T08:57:51.703Z,18.13
2018-07-06T09:00:21.180Z,18.63
2018-07-06T09:02:50.334Z,29.30
2018-07-06T09:05:19.838Z,18.50
2018-07-06T09:07:48.987Z,22.00
2018-07-06T09:10:18.461Z,22.53
2018-07-06T09:12:47.905Z,18.67
2018-07-06T09:15:17.347Z,18.27
2018-07-06T09:17:46.801Z,18.83
2018-07-06T09:20:16.315Z,20.23
2018-07-06T09:22:45.685Z,16.97
2018-07-06T09:25:15.152Z,21.07
2018-07-06T09:27:44.325Z,19.97
2018-07-06T09:30:14.238Z,21.73
2018-07-06T09:32:43.654Z,19.63
2018-07-06T09:35:13.505Z,21.47
2018-07-06T09:37:42.381Z,22.57
2018-07-06T09:40:11.769Z,17.70
2018-07-06T09:42:41.151Z,21.00
2018-07-06T09:45:10.339Z,25.30
2018-07-06T09:47:39.763Z,22.73
2018-07-06T09:50:09.699Z,18.57
2018-07-06T09:52:39.096Z,16.53
2018-07-06T09:55:08.564Z,17.33
2018-07-06T09:57:38.031Z,19.77
2018-07-06T10:00:07.549Z,17.20
2018-07-06T10:02:36.970Z,15.80
2018-07-06T10:05:06.475Z,20.10
2018-07-06T10:07:35.913Z,18.30
2018-07-06T10:10:05.494Z,20.00
2018-07-06T10:12:34.917Z,17.47
2018-07-06T10:15:04.355Z,16.00
2018-07-06T10:17:33.834Z,18.63
2018-07-06T10:20:03.064Z,19.83
2018-07-06T10:22:32.484Z,18.93
2018-07-06T10:25:01.950Z,21.27
2018-07-06T10:27:46.279Z,17.83
2018-07-06T10:30:28.502Z,18.17
2018-07-06T10:32:57.936Z,20.57
2018-07-06T10:35:27.357Z,22.83
2018-07-06T10:37:56.794Z,15.23
2018-07-06T10:40:26.243Z,18.37
2018-07-06T10:42:55.768Z,18.33
2018-07-06T10:45:25.249Z,16.67
2018-07-06T10:47:54.364Z,16.00
2018-07-06T10:50:23.842Z,22.70
2018-07-06T10:52:53.384Z,16.20
2018-07-06T10:55:22.853Z,19.53
2018-07-06T10:57:52.084Z,17.33
2018-07-06T11:00:21.564Z,17.37
2018-07-06T11:02:51.101Z,20.20
2018-07-06T11:05:20.522Z,18.43
2018-07-06T11:07:49.995Z,17.20
2018-07-06T11:10:19.441Z,16.17
2018-07-06T11:12:48.602Z,14.60
2018-07-06T11:15:18.208Z,18.57
2018-07-06T11:17:47.395Z,14.23
2018-07-06T11:20:16.831Z,16.73
2018-07-06T11:22:46.235Z,15.90
2018-07-06T11:25:15.748Z,15.60
2018-07-06T11:27:45.179Z,16.20
2018-07-06T11:30:14.588Z,15.10
2018-07-06T11:32:43.991Z,11.90
2018-07-06T11:35:13.415Z,14.90
2018-07-06T11:37:42.840Z,15.43
2018-07-06T11:40:12.026Z,13.40
2018-07-06T11:42:41.455Z,15.23
2018-07-06T11:45:10.964Z,14.17
2018-07-06T11:47:40.370Z,14.10
2018-07-06T11:50:09.836Z,17.90
2018-07-06T11:52:39.294Z,14.17
2018-07-06T11:55:08.695Z,16.60
2018-07-06T11:57:38.172Z,16.17
2018-07-06T12:00:07.347Z,18.87
2018-07-06T12:02:36.734Z,11.23
2018-07-06T12:05:07.413Z,11.80
2018-07-06T12:07:36.623Z,9.50
2018-07-06T12:10:06.704Z,14.40
2018-07-06T12:12:36.110Z,10.07
2018-07-06T12:15:05.674Z,9.60
2018-07-06T12:17:35.123Z,14.90
2018-07-06T12:20:04.614Z,11.53
2018-07-06T12:22:34.057Z,11.27
2018-07-06T12:25:03.465Z,13.37
2018-07-06T12:27:32.907Z,11.10
2018-07-06T12:30:02.355Z,10.50
2018-07-06T12:32:31.771Z,12.77
2018-07-06T12:35:02.090Z,12.73
2018-07-06T12:37:31.593Z,10.10
2018-07-06T12:40:00.799Z,8.90
2018-07-06T12:42:30.259Z,5.60
2018-07-06T12:45:00.679Z,8.03
2018-07-06T12:47:30.137Z,5.40
2018-07-06T12:49:59.589Z,6.03
2018-07-06T12:52:29.061Z,6.60
2018-07-06T12:54:58.560Z,7.17
2018-07-06T12:57:27.697Z,7.50
2018-07-06T12:59:57.166Z,6.80
2018-07-06T13:02:26.308Z,3.67
2018-07-06T13:04:57.836Z,3.70
2018-07-06T13:07:28.251Z,5.77
2018-07-06T13:10:00.053Z,7.33
2018-07-06T13:12:30.458Z,3.37
2018-07-06T13:14:59.826Z,6.63
2018-07-06T13:17:29.256Z,3.27
2018-07-06T13:19:58.854Z,2.33
2018-07-06T13:22:28.242Z,3.43
2018-07-06T13:24:57.442Z,3.80
2018-07-06T13:27:26.843Z,2.30
2018-07-06T13:29:56.202Z,3.77
2018-07-06T13:32:25.752Z,3.20
2018-07-06T13:34:55.231Z,3.70
2018-07-06T13:37:24.694Z,4.33
2018-07-06T13:39:54.865Z,6.00
2018-07-06T13:42:24.369Z,3.50
2018-07-06T13:44:53.841Z,2.73
2018-07-06T13:47:23.306Z,8.43
2018-07-06T13:49:52.760Z,2.90
2018-07-06T13:52:22.174Z,2.40
2018-07-06T13:54:52.458Z,3.53
2018-07-06T13:57:22.654Z,2.17
2018-07-06T13:59:52.098Z,2.20
2018-07-06T14:02:22.635Z,4.17
2018-07-06T14:04:52.060Z,2.30
2018-07-06T14:07:21.531Z,3.43
2018-07-06T14:09:50.986Z,2.53
2018-07-06T14:12:20.373Z,2.43
2018-07-06T14:14:49.783Z,2.10
2018-07-06T14:17:19.242Z,14.30
2018-07-06T14:19:48.726Z,3.37
2018-07-06T14:22:18.209Z,2.20
2018-07-06T14:24:47.597Z,2.77
2018-07-06T14:27:17.155Z,3.43
2018-07-06T14:29:46.645Z,9.30
2018-07-06T14:32:16.084Z,3.43
2018-07-06T14:34:45.525Z,4.67
2018-07-06T14:37:14.991Z,2.10
2018-07-06T14:39:44.143Z,4.83
2018-07-06T14:42:13.601Z,3.23
2018-07-06T14:44:43.386Z,4.47
2018-07-06T14:47:12.868Z,2.27
2018-07-06T14:49:42.339Z,2.03
2018-07-06T14:52:11.793Z,3.67
2018-07-06T14:54:41.278Z,2.70
2018-07-06T14:57:10.675Z,5.30
2018-07-06T14:59:40.200Z,2.23
2018-07-06T15:02:09.690Z,6.23
2018-07-06T15:04:39.177Z,1.90
2018-07-06T15:07:08.548Z,2.00
2018-07-06T15:09:38.037Z,2.60
2018-07-06T15:12:07.494Z,4.67
2018-07-06T15:14:36.999Z,2.83
2018-07-06T15:17:06.611Z,31.07
2018-07-06T15:19:35.991Z,2.20
2018-07-06T15:22:05.551Z,18.53
2018-07-06T15:24:35.082Z,2.63
2018-07-06T15:27:04.541Z,5.60
2018-07-06T15:29:34.041Z,4.77
2018-07-06T15:32:03.439Z,3.40
2018-07-06T15:34:32.849Z,3.33
2018-07-06T15:37:02.293Z,4.07
2018-07-06T15:39:31.682Z,4.40
2018-07-06T15:42:01.137Z,4.13
2018-07-06T15:44:30.263Z,4.57
2018-07-06T15:46:59.709Z,4.53
2018-07-06T15:49:29.186Z,5.23
2018-07-06T15:51:58.615Z,3.77
2018-07-06T15:54:28.063Z,4.73
2018-07-06T15:56:57.477Z,4.40
2018-07-06T15:59:26.869Z,4.90
2018-07-06T16:01:56.042Z,10.77
2018-07-06T16:04:25.558Z,7.87
2018-07-06T16:06:55.016Z,4.93
2018-07-06T16:09:24.640Z,5.40
2018-07-06T16:11:54.133Z,5.93
2018-07-06T16:14:23.638Z,6.80
2018-07-06T16:16:53.142Z,7.37
2018-07-06T16:19:22.606Z,4.10
2018-07-06T16:21:51.840Z,4.80
2018-07-06T16:24:21.305Z,9.43
2018-07-06T16:26:51.098Z,10.60
2018-07-06T16:29:20.518Z,4.77
2018-07-06T16:31:49.994Z,4.50
2018-07-06T16:34:19.407Z,4.40
2018-07-06T16:36:48.920Z,12.00
2018-07-06T16:39:18.318Z,6.93
2018-07-06T16:41:47.848Z,10.67
2018-07-06T16:44:17.526Z,10.40
2018-07-06T16:46:46.913Z,6.67
2018-07-06T16:49:16.348Z,4.87
2018-07-06T16:51:45.784Z,8.00
2018-07-06T16:54:15.252Z,20.57
2018-07-06T16:56:44.687Z,6.30
2018-07-06T16:59:14.189Z,7.17
2018-07-06T17:01:43.677Z,6.47
2018-07-06T17:04:13.119Z,8.90
2018-07-06T17:06:42.644Z,5.67
2018-07-06T17:09:12.314Z,5.93
2018-07-06T17:11:41.788Z,5.73
2018-07-06T17:14:11.268Z,4.30
2018-07-06T17:16:40.725Z,6.00
2018-07-06T17:19:10.209Z,6.70
2018-07-06T17:21:39.661Z,5.57
2018-07-06T17:24:08.770Z,5.70
2018-07-06T17:26:38.266Z,10.20
2018-07-06T17:29:07.384Z,9.33
2018-07-06T17:31:36.905Z,6.23
2018-07-06T17:34:06.406Z,11.50
2018-07-06T17:36:35.835Z,7.47
2018-07-06T17:39:06.001Z,7.50
2018-07-06T17:41:35.248Z,10.90
2018-07-06T17:44:04.805Z,9.60
2018-07-06T17:46:34.297Z,7.30
2018-07-06T17:49:03.806Z,10.70
2018-07-06T17:51:33.272Z,10.20
2018-07-06T17:54:02.766Z,11.33
2018-07-06T17:56:32.183Z,9.10
2018-07-06T17:59:01.636Z,14.00
2018-07-06T18:01:30.806Z,9.40
2018-07-06T18:04:00.238Z,7.60
2018-07-06T18:06:29.345Z,7.20
2018-07-06T18:08:58.576Z,8.97
2018-07-06T18:11:28.008Z,15.67
2018-07-06T18:13:57.511Z,7.00
2018-07-06T18:16:26.922Z,9.70
2018-07-06T18:18:56.335Z,8.30
2018-07-06T18:21:25.822Z,12.87
2018-07-06T18:23:55.379Z,8.63
2018-07-06T18:26:24.849Z,8.10
2018-07-06T18:28:54.293Z,7.07
2018-07-06T18:31:23.497Z,9.23
2018-07-06T18:33:53.813Z,7.37
2018-07-06T18:36:23.364Z,15.33
2018-07-06T18:38:52.753Z,17.60
2018-07-06T18:41:22.197Z,11.07
2018-07-06T18:43:51.691Z,20.47
2018-07-06T18:46:21.181Z,15.30
2018-07-06T18:48:50.613Z,8.10
2018-07-06T18:51:20.037Z,15.00
2018-07-06T18:53:49.470Z,12.10
2018-07-06T18:56:18.912Z,12.70
2018-07-06T18:58:48.365Z,9.90
2018-07-06T19:01:17.911Z,9.97
2018-07-06T19:03:47.366Z,7.30
2018-07-06T19:06:16.860Z,8.60
2018-07-06T19:08:46.579Z,7.90
2018-07-06T19:11:16.064Z,15.67
2018-07-06T19:13:45.563Z,6.73
2018-07-06T19:16:16.001Z,9.80
2018-07-06T19:18:45.598Z,9.80
2018-07-06T19:21:15.065Z,8.53
2018-07-06T19:23:44.458Z,10.17
2018-07-06T19:26:13.944Z,11.13
2018-07-06T19:28:43.385Z,9.47
2018-07-06T19:31:14.131Z,8.60
2018-07-06T19:33:43.608Z,13.40
2018-07-06T19:36:13.009Z,8.33
2018-07-06T19:38:42.460Z,11.50
2018-07-06T19:41:11.915Z,8.90
2018-07-06T19:43:41.052Z,9.00
2018-07-06T19:46:10.500Z,7.63
2018-07-06T19:48:39.937Z,17.53
2018-07-06T19:51:10.411Z,8.17
2018-07-06T19:53:39.836Z,10.43
2018-07-06T19:56:09.350Z,9.23
2018-07-06T19:58:38.807Z,13.13
2018-07-06T20:01:08.286Z,8.37
2018-07-06T20:03:37.753Z,9.53
2018-07-06T20:06:07.212Z,8.80
2018-07-06T20:08:36.672Z,11.13
2018-07-06T20:11:06.700Z,10.63
2018-07-06T20:13:36.322Z,10.93
2018-07-06T20:16:05.828Z,11.90
2018-07-06T20:18:35.735Z,10.10
2018-07-06T20:21:05.291Z,14.83
2018-07-06T20:23:34.770Z,13.97
2018-07-06T20:26:04.254Z,15.17
2018-07-06T20:28:33.691Z,8.47
2018-07-06T20:31:03.112Z,15.00
2018-07-06T20:33:33.180Z,8.43
2018-07-06T20:36:02.689Z,10.00
2018-07-06T20:38:32.135Z,9.90
2018-07-06T20:41:01.599Z,16.73
2018-07-06T20:43:31.289Z,11.20
2018-07-06T20:46:00.638Z,9.53
2018-07-06T20:48:30.223Z,11.33
2018-07-06T20:51:00.052Z,11.83
2018-07-06T20:53:29.400Z,12.87
2018-07-06T20:55:58.858Z,11.47
2018-07-06T20:58:28.299Z,11.40
2018-07-06T21:00:57.865Z,14.60
2018-07-06T21:03:27.338Z,8.90
2018-07-06T21:05:56.519Z,9.70
2018-07-06T21:08:26.100Z,11.13
2018-07-06T21:10:55.267Z,13.30
2018-07-06T21:13:24.705Z,10.50
2018-07-06T21:15:54.228Z,10.63
2018-07-06T21:18:24.362Z,9.43
2018-07-06T21:20:53.914Z,11.00
2018-07-06T21:23:23.449Z,11.40
2018-07-06T21:25:52.898Z,13.17
2018-07-06T21:28:22.106Z,9.90
2018-07-06T21:30:51.565Z,11.53
2018-07-06T21:33:21.408Z,12.30
2018-07-06T21:35:50.880Z,12.67
2018-07-06T21:38:20.420Z,11.70
2018-07-06T21:40:49.816Z,9.67
2018-07-06T21:43:19.269Z,13.67
2018-07-06T21:45:48.715Z,11.60
2018-07-06T21:48:18.138Z,10.53
2018-07-06T21:50:47.710Z,11.60
2018-07-06T21:53:17.182Z,10.63
2018-07-06T21:55:46.630Z,15.40
2018-07-06T21:58:16.078Z,14.33
2018-07-06T22:00:45.512Z,11.73
2018-07-06T22:03:15.102Z,13.07
2018-07-06T22:05:44.518Z,14.13
2018-07-06T22:08:13.962Z,15.73
2018-07-06T22:10:43.443Z,10.80
2018-07-06T22:13:12.877Z,13.73
2018-07-06T22:15:46.030Z,13.23
2018-07-06T22:18:17.139Z,12.20
2018-07-06T22:20:47.685Z,19.43
2018-07-06T22:23:17.000Z,18.07
2018-07-06T22:25:46.481Z,15.23
2018-07-06T22:28:15.964Z,16.23
2018-07-06T22:30:45.364Z,11.93
2018-07-06T22:33:14.980Z,13.63
2018-07-06T22:35:44.397Z,12.73
2018-07-06T22:38:13.835Z,14.80
2018-07-06T22:40:43.804Z,13.37
2018-07-06T22:43:13.318Z,11.67
2018-07-06T22:45:42.756Z,13.97
2018-07-06T22:48:12.290Z,13.60
2018-07-06T22:50:41.431Z,12.00
2018-07-06T22:53:10.914Z,18.83
2018-07-06T22:55:40.518Z,14.77
2018-07-06T22:58:09.666Z,15.13
2018-07-06T23:00:39.584Z,17.30
2018-07-06T23:03:08.738Z,20.03
2018-07-06T23:05:38.309Z,14.23
2018-07-06T23:08:07.758Z,16.30
2018-07-06T23:10:37.289Z,14.47
2018-07-06T23:13:07.099Z,15.23
2018-07-06T23:15:37.113Z,12.87
2018-07-06T23:18:06.712Z,14.00
2018-07-06T23:20:36.281Z,13.07
2018-07-06T23:23:12.813Z,17.27
2018-07-06T23:25:47.283Z,17.97
2018-07-06T23:28:17.070Z,12.07
2018-07-06T23:30:46.532Z,11.80
2018-07-06T23:33:16.080Z,12.23
2018-07-06T23:35:45.536Z,11.10
2018-07-06T23:38:14.997Z,11.40
2018-07-06T23:40:44.458Z,21.30
2018-07-06T23:43:13.864Z,13.03
2018-07-06T23:45:43.370Z,11.93
2018-07-06T23:48:12.818Z,19.10
2018-07-06T23:50:42.373Z,12.20
2018-07-06T23:53:11.852Z,18.10
2018-07-06T23:55:41.884Z,30.33
2018-07-06T23:58:11.050Z,14.63
